Time;durP1;ratioP1;P1;durP2;ratioP2;P2;SDS_P1;SDS_P2;PMS_P1;PMS_P2;Temp;Humidity;BMP_temperature;BMP_pressure;BME280_temperature;BME280_humidity;BME280_pressure;Samples;Min_cycle;Max_cycle;Signal;HPM_P1;HPM_P2
2022/07/16 00:01:28;;;;;;;;;;;;;;;-142.75;100.00;76916.75;5013182;28;19913;-69
2022/07/16 00:03:55;;;;;;;;;;;;;;;-142.75;100.00;76904.94;5013114;28;19922;-69
2022/07/16 00:06:20;;;;;;;;;;;;;;;-142.75;100.00;76902.97;5013150;28;20006;-69
2022/07/16 00:08:45;;;;;;;;;;;;;;;-142.75;100.00;76901.00;5012846;28;19913;-69
2022/07/16 00:11:11;;;;;;;;;;;;;;;-142.75;100.00;76906.91;4995307;28;19924;-69
2022/07/16 00:13:36;;;;;;;;;;;;;;;-142.75;100.00;76916.75;5013037;28;19913;-69
2022/07/16 00:16:01;;;;;;;;;;;;;;;-142.75;100.00;76916.75;5012876;28;19953;-68
2022/07/16 00:21:10;;;;;;;;;;;;;;;-142.75;100.00;76922.66;5012927;28;19920;-69
2022/07/16 00:23:35;;;;;;;;;;;;;;;-142.75;100.00;76924.63;5012870;28;19914;-69
2022/07/16 00:26:01;;;;;;;;;;;;;;;-142.75;100.00;76932.50;5012780;28;19914;-68
2022/07/16 00:28:26;;;;;;;;;;;;;;;-142.75;100.00;76932.50;5012403;28;20049;-69
2022/07/16 00:30:51;;;;;;;;;;;;;;;-142.75;100.00;76930.53;5012715;28;20004;-69
2022/07/16 00:33:16;;;;;;;;;;;;;;;-142.75;100.00;76938.41;4995062;28;19913;-69
2022/07/16 00:35:41;;;;;;;;;;;;;;;-142.75;100.00;76940.38;5012673;28;19917;-69
2022/07/16 00:38:07;;;;;;;;;;;;;;;-142.75;100.00;76942.34;5012452;28;19913;-69
2022/07/16 00:40:33;;;;;;;;;;;;;;;-142.75;100.00;76940.38;4994934;28;20371;-69
2022/07/16 00:43:01;;;;;;;;;;;;;;;-142.75;100.00;76946.28;5011948;28;20406;-68
2022/07/16 00:45:26;;;;;;;;;;;;;;;-142.75;100.00;76948.25;5012601;28;19956;-69
2022/07/16 00:47:51;;;;;;;;;;;;;;;-142.75;100.00;76952.19;5012290;28;20409;-67
2022/07/16 00:50:17;;;;;;;;;;;;;;;-142.75;100.00;76948.25;5012500;28;20338;-69
2022/07/16 00:52:42;;;;;;;;;;;;;;;-142.75;100.00;76944.31;5012468;28;19983;-69
2022/07/16 00:55:07;;;;;;;;;;;;;;;-142.75;100.00;76938.41;5012367;28;20012;-69
2022/07/16 00:57:32;;;;;;;;;;;;;;;-142.75;100.00;76938.41;5012420;28;20327;-69
2022/07/16 00:59:57;;;;;;;;;;;;;;;-142.75;100.00;76944.31;5012104;28;19921;-69
2022/07/16 01:02:23;;;;;;;;;;;;;;;-142.75;100.00;76940.38;4994757;28;19917;-69
2022/07/16 01:04:48;;;;;;;;;;;;;;;-142.75;100.00;76946.28;4994774;28;20379;-68
2022/07/16 01:07:14;;;;;;;;;;;;;;;-142.75;100.00;76954.16;5011094;28;20004;-69
2022/07/16 01:09:39;;;;;;;;;;;;;;;-142.75;100.00;76952.19;5011891;28;19920;-69
2022/07/16 01:12:05;;;;;;;;;;;;;;;-142.75;100.00;76952.19;5012366;28;20050;-69
2022/07/16 01:14:30;;;;;;;;;;;;;;;-142.75;100.00;76956.13;5012231;28;19971;-69
2022/07/16 01:16:56;;;;;;;;;;;;;;;-142.75;100.00;76964.00;5012233;28;20371;-69
2022/07/16 01:19:21;;;;;;;;;;;;;;;-142.75;100.00;76971.88;5011899;28;19914;-69
2022/07/16 01:21:46;;;;;;;;;;;;;;;-142.75;100.00;76975.81;5012293;28;19914;-69
2022/07/16 01:24:11;;;;;;;;;;;;;;;-142.75;100.00;76971.88;5012143;28;19914;-69
2022/07/16 01:26:37;;;;;;;;;;;;;;;-142.75;100.00;76975.81;5012246;28;20287;-69
2022/07/16 01:29:02;;;;;;;;;;;;;;;-142.75;100.00;76979.75;5011883;28;19914;-69
2022/07/16 01:31:28;;;;;;;;;;;;;;;-142.75;100.00;76981.72;5011980;28;19961;-68
2022/07/16 01:36:38;;;;;;;;;;;;;;;-142.75;100.00;76979.75;5012186;28;19925;-69
2022/07/16 01:39:04;;;;;;;;;;;;;;;-142.75;100.00;76975.81;5010505;28;19914;-69
2022/07/16 01:41:29;;;;;;;;;;;;;;;-142.75;100.00;76971.88;5014188;28;20326;-69
2022/07/16 01:43:54;;;;;;;;;;;;;;;-142.75;100.00;76969.91;5015638;28;19914;-69
2022/07/16 01:46:19;;;;;;;;;;;;;;;-142.75;100.00;76971.88;5015810;28;19921;-69
2022/07/16 01:48:44;;;;;;;;;;;;;;;-142.75;100.00;76967.94;5015402;28;19913;-69
2022/07/16 01:51:10;;;;;;;;;;;;;;;-142.75;100.00;76971.88;5014316;28;19913;-69
2022/07/16 01:53:35;;;;;;;;;;;;;;;-142.75;100.00;76965.97;5015545;28;19917;-69
2022/07/16 01:56:00;;;;;;;;;;;;;;;-142.75;100.00;76964.00;4997890;28;20379;-69
2022/07/16 01:58:26;;;;;;;;;;;;;;;-142.75;100.00;76962.03;5015151;28;19921;-69
2022/07/16 02:00:51;;;;;;;;;;;;;;;-142.75;100.00;76960.06;5015402;28;19964;-69
2022/07/16 02:03:17;;;;;;;;;;;;;;;-142.75;100.00;76962.03;4997771;28;19952;-69
2022/07/16 02:05:42;;;;;;;;;;;;;;;-142.75;100.00;76962.03;5015369;28;19920;-69
2022/07/16 02:08:07;;;;;;;;;;;;;;;-142.75;100.00;76956.13;5015008;28;20028;-69
2022/07/16 02:10:33;;;;;;;;;;;;;;;-142.75;100.00;76958.09;5015071;28;19918;-69
2022/07/16 02:12:59;;;;;;;;;;;;;;;-142.75;100.00;76960.06;5015211;28;19917;-69
2022/07/16 02:15:24;;;;;;;;;;;;;;;-142.75;100.00;76964.00;5015086;28;20059;-69
2022/07/16 02:17:49;;;;;;;;;;;;;;;-142.75;100.00;76960.06;5015007;28;19976;-68
2022/07/16 02:20:15;;;;;;;;;;;;;;;-142.75;100.00;76975.81;5014880;28;19914;-69
2022/07/16 02:22:40;;;;;;;;;;;;;;;-142.75;100.00;76977.78;5015041;28;19921;-69
2022/07/16 02:25:06;;;;;;;;;;;;;;;-142.75;100.00;76983.69;5015024;28;19913;-70
2022/07/16 02:27:32;;;;;;;;;;;;;;;-142.75;100.00;76983.69;5014906;28;19940;-68
2022/07/16 02:29:59;;;;;;;;;;;;;;;-142.75;100.00;76991.56;5014633;28;19913;-69
2022/07/16 02:32:24;;;;;;;;;;;;;;;-142.75;100.00;76995.50;5014877;28;20008;-68
2022/07/16 02:34:49;;;;;;;;;;;;;;;-142.75;100.00;77009.28;5014786;28;20004;-69
2022/07/16 02:37:14;;;;;;;;;;;;;;;-142.75;100.00;77019.13;5014751;28;19921;-70
2022/07/16 02:39:40;;;;;;;;;;;;;;;-142.75;100.00;77023.06;5014404;28;20260;-69
2022/07/16 02:42:05;;;;;;;;;;;;;;;-142.75;100.00;77034.88;4997114;28;20344;-69
2022/07/16 02:44:30;;;;;;;;;;;;;;;-142.75;100.00;77038.81;5014639;28;19939;-68
2022/07/16 02:46:55;;;;;;;;;;;;;;;-142.75;100.00;77048.66;5014575;28;20272;-68
2022/07/16 02:49:21;;;;;;;;;;;;;;;-142.75;100.00;77054.56;5014219;28;20015;-69
2022/07/16 02:51:46;;;;;;;;;;;;;;;-142.75;100.00;77062.44;5013726;28;19914;-68
2022/07/16 02:54:11;;;;;;;;;;;;;;;-142.75;100.00;77066.38;5013939;28;19913;-69
2022/07/16 02:56:36;;;;;;;;;;;;;;;-142.75;100.00;77084.09;5014473;28;20006;-69
2022/07/16 02:59:01;;;;;;;;;;;;;;;-142.75;100.00;77086.06;5014024;28;20278;-69
2022/07/16 03:01:27;;;;;;;;;;;;;;;-142.75;100.00;77099.84;5014283;28;19913;-69
2022/07/16 03:03:52;;;;;;;;;;;;;;;-142.75;100.00;77107.72;5014263;28;19914;-69
2022/07/16 03:06:17;;;;;;;;;;;;;;;-142.75;100.00;77109.69;5014202;28;19917;-69
2022/07/16 03:08:42;;;;;;;;;;;;;;;-142.75;100.00;77115.59;5013838;28;19913;-69
2022/07/16 03:11:08;;;;;;;;;;;;;;;-142.75;100.00;77113.63;5013958;28;19921;-69
2022/07/16 03:13:33;;;;;;;;;;;;;;;-142.75;100.00;77127.41;5013992;28;19913;-68
2022/07/16 03:15:58;;;;;;;;;;;;;;;-142.75;100.00;77137.25;5014013;28;19925;-68
2022/07/16 03:18:23;;;;;;;;;;;;;;;-142.75;100.00;77153.00;5013743;28;19955;-69
2022/07/16 03:20:48;;;;;;;;;;;;;;;-142.75;100.00;77153.00;5013890;28;20298;-69
2022/07/16 03:23:14;;;;;;;;;;;;;;;-142.75;100.00;77147.09;5013921;28;19917;-69
2022/07/16 03:25:41;;;;;;;;;;;;;;;-142.75;100.00;77149.06;4996332;28;19914;-69
2022/07/16 03:28:06;;;;;;;;;;;;;;;-142.75;100.00;77168.75;5013494;28;19943;-68
2022/07/16 03:30:32;;;;;;;;;;;;;;;-142.75;100.00;77166.78;4996174;28;20368;-69
2022/07/16 03:32:58;;;;;;;;;;;;;;;-142.75;100.00;77174.66;4996164;28;20613;-68
2022/07/16 03:35:23;;;;;;;;;;;;;;;-142.75;100.00;77192.38;4996064;28;19945;-69
2022/07/16 03:40:32;;;;;;;;;;;;;;;-142.75;100.00;77192.38;5013892;28;20020;-68
2022/07/16 03:42:57;;;;;;;;;;;;;;;-142.75;100.00;77202.22;5013614;28;20410;-69
2022/07/16 03:45:23;;;;;;;;;;;;;;;-142.75;100.00;77210.09;5013522;28;19913;-68
2022/07/16 03:47:48;;;;;;;;;;;;;;;-142.75;100.00;77210.09;5013326;28;20406;-68
2022/07/16 03:50:14;;;;;;;;;;;;;;;-142.75;100.00;77214.03;5013329;28;19921;-68
2022/07/16 03:52:39;;;;;;;;;;;;;;;-142.75;100.00;77231.75;5013369;28;19913;-69
2022/07/16 03:55:05;;;;;;;;;;;;;;;-142.75;100.00;77235.69;5013266;28;19921;-69
2022/07/16 03:57:30;;;;;;;;;;;;;;;-142.75;100.00;77239.63;5013264;28;19925;-69
2022/07/16 03:59:55;;;;;;;;;;;;;;;-142.75;100.00;77239.63;5012967;28;19914;-69
2022/07/16 04:02:20;;;;;;;;;;;;;;;-142.75;100.00;77235.69;5013250;28;20299;-69
2022/07/16 04:04:45;;;;;;;;;;;;;;;-142.75;100.00;77231.75;5012882;28;19920;-69
2022/07/16 04:07:10;;;;;;;;;;;;;;;-142.75;100.00;77235.69;5013102;28;19996;-69
2022/07/16 04:12:24;;;;;;;;;;;;;;;-142.75;100.00;77231.75;4967636;28;19987;-68
2022/07/16 04:14:50;;;;;;;;;;;;;;;-142.75;100.00;77229.78;4970661;28;19926;-69
2022/07/16 04:17:15;;;;;;;;;;;;;;;-142.75;100.00;77223.88;4971138;28;19925;-69
2022/07/16 04:19:40;;;;;;;;;;;;;;;-142.75;100.00;77223.88;4969666;28;19914;-70
2022/07/16 04:22:06;;;;;;;;;;;;;;;-142.75;100.00;77219.94;4971012;28;19953;-70
2022/07/16 04:24:31;;;;;;;;;;;;;;;-142.75;100.00;77223.88;4971010;28;19921;-70
2022/07/16 04:26:56;;;;;;;;;;;;;;;-142.75;100.00;77221.91;4971099;28;19984;-70
2022/07/16 04:29:21;;;;;;;;;;;;;;;-142.75;100.00;77219.94;4969570;28;20357;-69
2022/07/16 04:31:47;;;;;;;;;;;;;;;-142.75;100.00;77221.91;4969667;28;20442;-70
2022/07/16 04:34:12;;;;;;;;;;;;;;;-142.75;100.00;77216.00;4970994;28;19915;-69
2022/07/16 04:36:37;;;;;;;;;;;;;;;-142.75;100.00;77210.09;4969684;28;19960;-70
2022/07/16 04:39:02;;;;;;;;;;;;;;;-142.75;100.00;77208.13;4969295;28;19915;-69
2022/07/16 04:41:27;;;;;;;;;;;;;;;-142.75;100.00;77214.03;4970777;28;19918;-70
2022/07/16 04:43:52;;;;;;;;;;;;;;;-142.75;100.00;77217.97;4970822;28;19967;-69
2022/07/16 04:46:18;;;;;;;;;;;;;;;-142.75;100.00;77212.06;4970818;28;19967;-69
2022/07/16 04:48:43;;;;;;;;;;;;;;;-142.75;100.00;77204.19;4969304;28;19952;-70
2022/07/16 04:51:08;;;;;;;;;;;;;;;-142.75;100.00;77206.16;4970662;28;20378;-69
2022/07/16 04:53:37;;;;;;;;;;;;;;;-142.75;100.00;77192.38;4970679;28;19947;-70
2022/07/16 04:56:03;;;;;;;;;;;;;;;-142.75;100.00;77188.44;4970611;28;19940;-70
2022/07/16 04:58:28;;;;;;;;;;;;;;;-142.75;100.00;77184.50;4970326;28;20420;-69
2022/07/16 05:00:53;;;;;;;;;;;;;;;-142.75;100.00;77174.66;4970533;28;20013;-70
2022/07/16 05:03:18;;;;;;;;;;;;;;;-142.75;100.00;77164.81;4970687;28;19914;-69
2022/07/16 05:05:44;;;;;;;;;;;;;;;-142.75;100.00;77164.81;4970519;28;19915;-70
2022/07/16 05:08:09;;;;;;;;;;;;;;;-142.75;100.00;77162.84;4970639;28;19921;-69
2022/07/16 05:10:35;;;;;;;;;;;;;;;-142.75;100.00;77156.94;4970407;28;19989;-70
2022/07/16 05:13:00;;;;;;;;;;;;;;;-142.75;100.00;77149.06;4970717;28;19915;-70
2022/07/16 05:15:26;;;;;;;;;;;;;;;-142.75;100.00;77141.19;4969793;28;19922;-69
2022/07/16 05:17:51;;;;;;;;;;;;;;;-142.75;100.00;77129.38;4973886;28;19937;-69
2022/07/16 05:20:17;;;;;;;;;;;;;;;-142.75;100.00;77125.44;4972534;28;20386;-69
2022/07/16 05:22:42;;;;;;;;;;;;;;;-142.75;100.00;77123.47;4974034;28;19918;-70
2022/07/16 05:25:08;;;;;;;;;;;;;;;-142.75;100.00;77121.50;4974021;28;20036;-69
2022/07/16 05:27:34;;;;;;;;;;;;;;;-142.75;100.00;77105.75;4973712;28;19915;-69
2022/07/16 05:29:59;;;;;;;;;;;;;;;-142.75;100.00;77105.75;4973463;28;20016;-69
2022/07/16 05:32:24;;;;;;;;;;;;;;;-142.75;100.00;77105.75;4973653;28;19926;-69
2022/07/16 05:34:49;;;;;;;;;;;;;;;-142.75;100.00;77113.63;4973545;28;20338;-70
2022/07/16 05:37:15;;;;;;;;;;;;;;;-142.75;100.00;77103.78;4973589;28;19925;-69
2022/07/16 05:39:40;;;;;;;;;;;;;;;-142.75;100.00;77101.81;4973225;28;19925;-69
2022/07/16 05:42:05;;;;;;;;;;;;;;;-142.75;100.00;77088.03;4973426;28;19914;-70
2022/07/16 05:44:30;;;;;;;;;;;;;;;-142.75;100.00;77082.13;4973496;28;19930;-70
2022/07/16 05:46:55;;;;;;;;;;;;;;;-142.75;100.00;77070.31;4973442;28;19914;-70
2022/07/16 05:49:21;;;;;;;;;;;;;;;-142.75;100.00;77056.53;4973110;28;20330;-69
2022/07/16 05:51:46;;;;;;;;;;;;;;;-142.75;100.00;77054.56;4973345;28;19921;-70
2022/07/16 05:54:11;;;;;;;;;;;;;;;-142.75;100.00;77042.75;4973251;28;19921;-69
2022/07/16 05:56:36;;;;;;;;;;;;;;;-142.75;100.00;77036.84;4973213;28;19918;-70
2022/07/16 05:59:02;;;;;;;;;;;;;;;-142.75;100.00;77025.03;4971746;28;19918;-70
2022/07/16 06:01:28;;;;;;;;;;;;;;;-142.75;100.00;77030.94;4973191;28;20407;-70
2022/07/16 06:03:53;;;;;;;;;;;;;;;-142.75;100.00;77027.00;4973227;28;20342;-70
2022/07/16 06:06:18;;;;;;;;;;;;;;;-142.75;100.00;77021.09;4973233;28;19914;-70
2022/07/16 06:08:44;;;;;;;;;;;;;;;-142.75;100.00;77015.19;4972731;28;20364;-69
2022/07/16 06:11:09;;;;;;;;;;;;;;;-142.75;100.00;77003.38;4972937;28;19971;-69
2022/07/16 06:13:36;;;;;;;;;;;;;;;-142.75;100.00;77011.25;4973091;28;19921;-69
2022/07/16 06:16:01;;;;;;;;;;;;;;;-142.75;100.00;77017.16;4963847;28;20024;-69
2022/07/16 06:18:26;;;;;;;;;;;;;;;-142.75;100.00;77021.09;4953420;28;19997;-69
2022/07/16 06:20:52;;;;;;;;;;;;;;;-142.75;100.00;77017.16;4953730;28;20265;-70
2022/07/16 06:23:17;;;;;;;;;;;;;;;-142.75;100.00;77007.31;4953595;28;19925;-70
2022/07/16 06:25:42;;;;;;;;;;;;;;;-142.75;100.00;76993.53;4953711;28;19921;-70
2022/07/16 06:28:07;;;;;;;;;;;;;;;-142.75;100.00;76983.69;4951854;28;20587;-69
2022/07/16 06:30:32;;;;;;;;;;;;;;;-142.75;100.00;76979.75;4953501;28;19914;-70
2022/07/16 06:32:58;;;;;;;;;;;;;;;-142.75;100.00;76971.88;4953532;28;19915;-68
2022/07/16 06:35:23;;;;;;;;;;;;;;;-142.75;100.00;76956.13;4953425;28;20296;-69
2022/07/16 06:37:48;;;;;;;;;;;;;;;-142.75;100.00;76948.25;4964921;28;19957;-70
2022/07/16 06:40:13;;;;;;;;;;;;;;;-142.75;100.00;76936.44;4953333;28;20009;-70
2022/07/16 06:42:38;;;;;;;;;;;;;;;-142.75;100.00;76942.34;4953494;28;19915;-69
2022/07/16 06:45:04;;;;;;;;;;;;;;;-142.75;100.00;76940.38;4953396;28;20377;-69
2022/07/16 06:47:29;;;;;;;;;;;;;;;-142.75;100.00;76918.72;4953180;28;19921;-69
2022/07/16 06:49:54;;;;;;;;;;;;;;;-142.75;100.00;76916.75;4952598;28;20408;-69
2022/07/16 06:52:19;;;;;;;;;;;;;;;-142.75;100.00;76914.78;4953647;28;19921;-68
2022/07/16 06:54:45;;;;;;;;;;;;;;;-142.75;100.00;76914.78;4951750;28;20037;-69
2022/07/16 06:57:10;;;;;;;;;;;;;;;-142.75;100.00;76922.66;4951685;28;20025;-67
2022/07/16 06:59:35;;;;;;;;;;;;;;;-142.75;100.00;76930.53;4951983;28;20013;-67
2022/07/16 07:02:00;;;;;;;;;;;;;;;-142.75;100.00;76924.63;4951895;28;19914;-68
2022/07/16 07:04:25;;;;;;;;;;;;;;;-142.75;100.00;76926.59;4952108;28;19975;-67
2022/07/16 07:06:51;;;;;;;;;;;;;;;-142.75;100.00;76926.59;4952193;28;19921;-68
2022/07/16 07:09:16;;;;;;;;;;;;;;;-142.75;100.00;76924.63;4966412;28;19973;-67
2022/07/16 07:11:42;;;;;;;;;;;;;;;-142.75;100.00;76899.03;4951740;28;20443;-67
2022/07/16 07:14:07;;;;;;;;;;;;;;;-142.75;100.00;76891.16;4951869;28;19940;-67
2022/07/16 07:16:32;;;;;;;;;;;;;;;-142.75;100.00;76865.56;4951776;28;20377;-67
2022/07/16 07:18:58;;;;;;;;;;;;;;;-142.75;100.00;76857.69;4951773;28;20025;-67
2022/07/16 07:21:23;;;;;;;;;;;;;;;-142.75;100.00;76834.06;4951888;28;19918;-66
2022/07/16 07:23:48;;;;;;;;;;;;;;;-142.75;100.00;76810.44;4951783;28;20373;-68
2022/07/16 07:26:13;;;;;;;;;;;;;;;-142.75;100.00;76808.50;4966559;28;19918;-68
2022/07/16 07:28:38;;;;;;;;;;;;;;;-142.75;100.00;76794.69;4952116;28;19960;-70
2022/07/16 07:31:04;;;;;;;;;;;;;;;-142.75;100.00;76778.97;4952793;28;20575;-69
2022/07/16 07:33:29;;;;;;;;;;;;;;;-142.75;100.00;76771.09;4967354;28;19922;-69
2022/07/16 07:35:54;;;;;;;;;;;;;;;-142.75;100.00;76757.31;4952475;28;19919;-69
2022/07/16 07:38:19;;;;;;;;;;;;;;;-142.75;100.00;76751.41;4951366;28;19984;-68
2022/07/16 07:40:45;;;;;;;;;;;;;;;-142.75;100.00;76761.25;4952424;28;19918;-69
2022/07/16 07:43:10;;;;;;;;;;;;;;;-142.75;100.00;76727.78;4951077;28;19929;-68
2022/07/16 07:45:35;;;;;;;;;;;;;;;-142.75;100.00;76725.81;4952483;28;19921;-68
2022/07/16 07:48:01;;;;;;;;;;;;;;;-142.75;100.00;76723.84;4950816;28;19922;-68
2022/07/16 07:50:26;;;;;;;;;;;;;;;-142.75;99.12;76733.69;4950985;28;19915;-68
2022/07/16 07:52:52;;;;;;;;;;;;;;;-142.75;97.36;76743.53;4952025;29;19915;-69
2022/07/16 07:55:17;;;;;;;;;;;;;;;-142.75;98.01;76747.47;4952350;28;20292;-69
2022/07/16 07:57:43;;;;;;;;;;;;;;;-142.75;97.68;76727.78;4952165;28;19921;-69
2022/07/16 08:00:09;;;;;;;;;;;;;;;-142.75;96.09;76694.31;4966786;28;20315;-69
2022/07/16 08:02:35;;;;;;;;;;;;;;;-142.75;92.90;76688.41;4967048;28;19929;-69
2022/07/16 08:05:00;;;;;;;;;;;;;;;-142.75;92.62;76662.81;4952191;28;19915;-69
2022/07/16 08:07:25;;;;;;;;;;;;;;;-142.75;92.65;76635.25;4950710;28;20009;-68
2022/07/16 08:09:50;;;;;;;;;;;;;;;-142.75;90.09;76623.44;4951862;28;20588;-69
2022/07/16 08:12:15;;;;;;;;;;;;;;;-142.75;90.49;76629.34;4951970;28;20291;-70
2022/07/16 08:14:41;;;;;;;;;;;;;;;-142.75;85.87;76631.31;4952056;28;19925;-69
2022/07/16 08:17:06;;;;;;;;;;;;;;;-142.75;91.87;76617.53;4950775;28;20003;-68
2022/07/16 08:19:32;;;;;;;;;;;;;;;-142.75;86.55;76617.53;4951709;28;19914;-67
2022/07/16 08:21:58;;;;;;;;;;;;;;;-142.75;86.23;76613.59;4950570;28;19915;-68
2022/07/16 08:27:08;;;;;;;;;;;;;;;-142.75;79.77;76580.13;4952176;29;20379;-69
2022/07/16 08:29:33;;;;;;;;;;;;;;;-142.75;78.70;76578.16;4949895;29;20005;-70
2022/07/16 08:31:58;;;;;;;;;;;;;;;-142.75;79.42;76578.16;4951728;28;19915;-70
2022/07/16 08:34:24;;;;;;;;;;;;;;;-142.75;77.95;76556.50;4951710;28;19965;-69
2022/07/16 08:36:50;;;;;;;;;;;;;;;-142.75;78.96;76546.66;4951702;28;20350;-70
2022/07/16 08:39:16;;;;;;;;;;;;;;;-142.75;76.95;76495.50;4950267;28;20376;-69
2022/07/16 08:41:42;;;;;;;;;;;;;;;-142.75;74.97;76527.00;4951570;28;19954;-69
2022/07/16 08:44:07;;;;;;;;;;;;;;;-142.75;77.47;76507.31;4951599;28;19915;-69
2022/07/16 08:46:32;;;;;;;;;;;;;;;-142.75;79.59;76507.31;4966360;28;19914;-70
2022/07/16 08:48:58;;;;;;;;;;;;;;;-142.75;79.60;76464.00;4965911;28;19918;-68
2022/07/16 08:51:30;;;;;;;;;;;;;;;-142.75;77.62;76462.03;4951240;28;19978;-68
2022/07/16 08:53:57;;;;;;;;;;;;;;;-142.75;73.67;76436.44;4951436;28;19926;-69
2022/07/16 08:56:23;;;;;;;;;;;;;;;-142.75;78.01;76442.34;4951313;28;19919;-70
2022/07/16 08:58:48;;;;;;;;;;;;;;;-142.75;71.04;76450.22;4950968;28;19920;-69
2022/07/16 09:01:13;;;;;;;;;;;;;;;-142.75;72.05;76485.66;4951336;28;19960;-69
2022/07/16 09:03:38;;;;;;;;;;;;;;;-142.75;74.91;76479.75;4951354;28;19919;-69
2022/07/16 09:06:04;;;;;;;;;;;;;;;-142.75;72.39;76499.44;4950098;28;19925;-68
2022/07/16 09:08:29;;;;;;;;;;;;;;;-142.75;72.28;76527.00;4950967;28;20300;-68
2022/07/16 09:10:54;;;;;;;;;;;;;;;-142.75;73.42;76495.50;4951137;28;19994;-70
2022/07/16 09:13:20;;;;;;;;;;;;;;;-142.75;74.04;76491.56;4951213;28;19915;-69
2022/07/16 09:15:45;;;;;;;;;;;;;;;-142.75;72.61;76467.94;4949879;28;19923;-70
2022/07/16 09:18:14;;;;;;;;;;;;;;;-142.75;75.88;76452.19;4950930;28;20301;-68
2022/07/16 09:20:41;;;;;;;;;;;;;;;-142.75;73.25;76436.44;4949860;28;19993;-68
2022/07/16 09:23:39;;;;;;;;;;;;;;;-142.75;70.94;76422.66;4951103;28;19922;-68
2022/07/16 09:26:06;;;;;;;;;;;;;;;-142.75;69.36;76397.06;4961419;28;19922;-68
2022/07/16 09:28:44;;;;;;;;;;;;;;;-142.75;69.17;76401.00;4950642;28;20420;-69
2022/07/16 09:31:10;;;;;;;;;;;;;;;-142.75;67.43;76412.81;4965760;28;19937;-70
2022/07/16 09:33:36;;;;;;;;;;;;;;;-142.75;68.57;76412.81;4950996;28;20404;-69
2022/07/16 09:36:05;;;;;;;;;;;;;;;-142.75;66.70;76402.97;4950898;29;19918;-69
2022/07/16 09:38:50;;;;;;;;;;;;;;;-142.75;69.50;76402.97;4941293;28;19915;-69
2022/07/16 09:41:15;;;;;;;;;;;;;;;-142.75;68.43;76399.03;4931601;29;19923;-70
2022/07/16 09:43:42;;;;;;;;;;;;;;;-142.75;67.24;76401.00;4931758;28;19922;-70
2022/07/16 09:46:07;;;;;;;;;;;;;;;-142.75;65.68;76367.53;4931743;29;19922;-69
2022/07/16 09:48:36;;;;;;;;;;;;;;;-142.75;65.46;76349.81;4931452;29;19915;-70
2022/07/16 09:51:12;;;;;;;;;;;;;;;-142.75;66.61;76314.41;4931615;29;19921;-69
2022/07/16 09:53:40;;;;;;;;;;;;;;;-142.75;65.84;76275.03;4931684;29;20322;-70
2022/07/16 09:56:07;;;;;;;;;;;;;;;-142.75;65.70;76278.97;4930247;29;19941;-69
2022/07/16 09:58:32;;;;;;;;;;;;;;;-142.75;65.44;76286.84;4931301;28;19921;-68
2022/07/16 10:00:58;;;;;;;;;;;;;;;-142.75;66.82;76304.56;4930256;29;19919;-69
2022/07/16 10:03:24;;;;;;;;;;;;;;;-142.75;66.62;76286.84;4936120;29;19915;-68
2022/07/16 10:05:49;;;;;;;;;;;;;;;-142.75;65.18;76351.81;4942428;28;19977;-69
2022/07/16 10:08:15;;;;;;;;;;;;;;;-142.75;67.17;76444.31;4949694;29;19925;-69
2022/07/16 10:13:18;;;;;;;;;;;;;;;-142.75;67.62;76401.00;5032550;28;19940;-70
2022/07/16 10:15:45;;;;;;;;;;;;;;;-142.75;69.24;76406.91;5034278;28;20016;-70
2022/07/16 10:18:29;;;;;;;;;;;;;;;-142.75;68.94;76460.06;5034837;28;19913;-69
2022/07/16 10:21:03;;;;;;;;;;;;;;;-142.75;69.26;76406.91;5034921;28;19920;-70
2022/07/16 10:23:29;;;;;;;;;;;;;;;-142.75;66.56;76391.16;5034723;28;19913;-69
2022/07/16 10:26:04;;;;;;;;;;;;;;;-142.75;66.45;76373.44;5034897;28;19960;-69
2022/07/16 10:28:36;;;;;;;;;;;;;;;-142.75;67.90;76341.97;5016781;28;20345;-69
2022/07/16 10:31:20;;;;;;;;;;;;;;;-142.75;66.97;76379.34;5034650;28;19913;-70
2022/07/16 10:33:45;;;;;;;;;;;;;;;-142.75;66.53;76473.84;5034579;28;19917;-69
2022/07/16 10:36:10;;;;;;;;;;;;;;;-142.75;64.47;76448.25;5034603;28;19917;-69
2022/07/16 10:38:36;;;;;;;;;;;;;;;-142.75;65.50;76428.56;5016624;28;19913;-70
2022/07/16 10:41:08;;;;;;;;;;;;;;;-142.75;67.50;76432.50;5034491;28;20303;-69
2022/07/16 10:43:33;;;;;;;;;;;;;;;-142.75;68.89;76412.81;5034516;28;19913;-70
2022/07/16 10:46:00;;;;;;;;;;;;;;;-142.75;67.47;76401.00;5016689;28;19924;-69
2022/07/16 10:48:30;;;;;;;;;;;;;;;-142.75;66.42;76399.03;5034070;28;19917;-70
2022/07/16 10:51:14;;;;;;;;;;;;;;;-142.75;67.61;76420.69;5034297;28;20375;-69
2022/07/16 10:53:57;;;;;;;;;;;;;;;-142.75;67.88;76399.03;5034359;28;19953;-69
2022/07/16 10:56:31;;;;;;;;;;;;;;;-142.75;70.73;76452.19;5016349;28;19917;-68
2022/07/16 10:58:56;;;;;;;;;;;;;;;-142.75;68.79;76460.06;5016134;28;19921;-69
2022/07/16 11:01:22;;;;;;;;;;;;;;;-142.75;69.87;76420.69;5016365;28;20343;-68
2022/07/16 11:03:51;;;;;;;;;;;;;;;-142.75;67.47;76424.63;5034057;28;19913;-69
2022/07/16 11:06:18;;;;;;;;;;;;;;;-142.75;68.03;76436.44;5034074;28;20016;-69
2022/07/16 11:08:43;;;;;;;;;;;;;;;-142.75;69.42;76397.06;5033771;28;20306;-69
2022/07/16 11:11:08;;;;;;;;;;;;;;;-142.75;68.04;76357.69;5015817;28;19924;-70
2022/07/16 11:13:33;;;;;;;;;;;;;;;-142.75;66.77;76418.72;5032885;28;19920;-69
2022/07/16 11:16:08;;;;;;;;;;;;;;;-142.75;70.13;76503.38;5033793;28;19928;-69
2022/07/16 11:18:37;;;;;;;;;;;;;;;-142.75;67.28;76479.75;5033480;28;20008;-69
2022/07/16 11:21:06;;;;;;;;;;;;;;;-142.75;68.00;76426.59;5016046;28;20294;-69
2022/07/16 11:23:47;;;;;;;;;;;;;;;-142.75;66.02;76406.91;5033828;28;19914;-70
2022/07/16 11:26:13;;;;;;;;;;;;;;;-142.75;66.75;76406.91;5015939;28;19919;-69
2022/07/16 11:28:49;;;;;;;;;;;;;;;-142.75;68.30;76375.41;5033357;28;20003;-70
2022/07/16 11:31:14;;;;;;;;;;;;;;;-142.75;67.55;76345.91;5033567;28;20379;-70
2022/07/16 11:33:42;;;;;;;;;;;;;;;-142.75;65.27;76334.09;5033507;28;19913;-70
2022/07/16 11:36:09;;;;;;;;;;;;;;;-142.75;66.70;76345.91;5033378;28;20391;-70
2022/07/16 11:38:34;;;;;;;;;;;;;;;-142.75;65.88;76341.97;5015294;28;19913;-70
2022/07/16 11:40:59;;;;;;;;;;;;;;;-142.75;67.40;76353.78;5015432;28;20007;-70
2022/07/16 11:43:28;;;;;;;;;;;;;;;-142.75;63.36;76365.56;5033233;28;19917;-70
2022/07/16 11:45:53;;;;;;;;;;;;;;;-142.75;62.87;76306.53;5015530;28;19913;-70
2022/07/16 11:48:19;;;;;;;;;;;;;;;-142.75;64.50;76345.91;5032904;28;19917;-70
2022/07/16 11:50:46;;;;;;;;;;;;;;;-142.75;65.09;76369.50;5033154;28;19913;-70
2022/07/16 11:53:14;;;;;;;;;;;;;;;-142.75;65.88;76440.38;5013039;28;19952;-70
2022/07/16 11:55:43;;;;;;;;;;;;;;;-142.75;63.07;76430.53;5022457;28;19979;-70
2022/07/16 11:58:10;;;;;;;;;;;;;;;-142.75;65.11;76430.53;5014745;28;19916;-71
2022/07/16 12:00:42;;;;;;;;;;;;;;;-142.75;63.95;76399.03;5033000;28;19948;-71
2022/07/16 12:03:09;;;;;;;;;;;;;;;-142.75;63.72;76367.53;5015116;28;19920;-70
2022/07/16 12:05:34;;;;;;;;;;;;;;;-142.75;64.88;76381.31;5032469;28;19917;-70
2022/07/16 12:08:02;;;;;;;;;;;;;;;-142.75;61.75;76367.53;5014693;28;19966;-70
2022/07/16 12:10:27;;;;;;;;;;;;;;;-142.75;62.61;76371.47;5032723;28;19928;-70
2022/07/16 12:13:06;;;;;;;;;;;;;;;-142.75;64.41;76369.50;5032486;28;19920;-71
2022/07/16 12:15:51;;;;;;;;;;;;;;;-142.75;61.43;76365.56;5014801;28;20406;-70
2022/07/16 12:18:16;;;;;;;;;;;;;;;-142.75;62.24;76365.56;5014613;28;19913;-71
2022/07/16 12:20:42;;;;;;;;;;;;;;;-142.75;64.50;76383.28;5014784;28;19914;-70
2022/07/16 12:23:11;;;;;;;;;;;;;;;-142.75;63.67;76361.63;5031589;28;20401;-71
2022/07/16 12:25:39;;;;;;;;;;;;;;;-142.75;62.37;76377.38;5014528;28;20337;-71
2022/07/16 12:28:11;;;;;;;;;;;;;;;-142.75;61.69;76377.38;5032398;28;20004;-71
2022/07/16 12:30:36;;;;;;;;;;;;;;;-142.75;62.50;76361.63;5032180;28;20009;-70
2022/07/16 12:33:03;;;;;;;;;;;;;;;-142.75;61.38;76361.63;5016883;28;20008;-69